sensor_id;sensor_type;location;lat;lon;timestamp;temperature;humidity
2913;DHT22;1466;48.778;9.166;2023-11-21T00:00:16;11.30;99.90
2913;DHT22;1466;48.778;9.166;2023-11-21T00:02:44;11.30;99.90
2913;DHT22;1466;48.778;9.166;2023-11-21T00:05:12;11.20;99.90
2913;DHT22;1466;48.778;9.166;2023-11-21T00:07:40;11.20;99.90
2913;DHT22;1466;48.778;9.166;2023-11-21T00:10:06;11.30;99.90
2913;DHT22;1466;48.778;9.166;2023-11-21T00:12:32;11.20;99.90
2913;DHT22;1466;48.778;9.166;2023-11-21T00:14:59;11.10;99.90
2913;DHT22;1466;48.778;9.166;2023-11-21T00:17:24;11.10;99.90
2913;DHT22;1466;48.778;9.166;2023-11-21T00:19:50;11.10;99.90
2913;DHT22;1466;48.778;9.166;2023-11-21T00:22:19;11.20;99.90
2913;DHT22;1466;48.778;9.166;2023-11-21T00:24:45;11.10;99.90
2913;DHT22;1466;48.778;9.166;2023-11-21T00:27:11;11.10;99.90
2913;DHT22;1466;48.778;9.166;2023-11-21T00:29:36;11.20;99.90
2913;DHT22;1466;48.778;9.166;2023-11-21T00:32:04;11.10;99.90
2913;DHT22;1466;48.778;9.166;2023-11-21T00:34:31;11.20;99.90
2913;DHT22;1466;48.778;9.166;2023-11-21T00:36:56;11.20;99.90
2913;DHT22;1466;48.778;9.166;2023-11-21T00:39:22;11.10;99.90
2913;DHT22;1466;48.778;9.166;2023-11-21T00:41:48;11.10;99.90
2913;DHT22;1466;48.778;9.166;2023-11-21T00:44:13;11.10;99.90
2913;DHT22;1466;48.778;9.166;2023-11-21T00:46:39;11.10;99.90
2913;DHT22;1466;48.778;9.166;2023-11-21T00:49:05;11.10;99.90
2913;DHT22;1466;48.778;9.166;2023-11-21T00:51:30;11.10;99.90
2913;DHT22;1466;48.778;9.166;2023-11-21T00:53:56;11.10;99.90
2913;DHT22;1466;48.778;9.166;2023-11-21T00:56:22;11.20;99.90
2913;DHT22;1466;48.778;9.166;2023-11-21T00:58:48;11.20;99.90
2913;DHT22;1466;48.778;9.166;2023-11-21T01:01:21;11.20;99.90
2913;DHT22;1466;48.778;9.166;2023-11-21T01:03:48;11.20;99.90
2913;DHT22;1466;48.778;9.166;2023-11-21T01:06:14;11.20;99.90
2913;DHT22;1466;48.778;9.166;2023-11-21T01:08:40;11.30;99.90
2913;DHT22;1466;48.778;9.166;2023-11-21T01:11:06;11.30;99.90
2913;DHT22;1466;48.778;9.166;2023-11-21T01:13:34;11.30;99.90
2913;DHT22;1466;48.778;9.166;2023-11-21T01:16:00;11.20;99.90
2913;DHT22;1466;48.778;9.166;2023-11-21T01:18:26;11.20;99.90
2913;DHT22;1466;48.778;9.166;2023-11-21T01:20:52;11.20;99.90
2913;DHT22;1466;48.778;9.166;2023-11-21T01:23:20;11.10;99.90
2913;DHT22;1466;48.778;9.166;2023-11-21T01:25:46;11.10;99.90
2913;DHT22;1466;48.778;9.166;2023-11-21T01:28:12;11.10;99.90
2913;DHT22;1466;48.778;9.166;2023-11-21T01:30:37;11.20;99.90
2913;DHT22;1466;48.778;9.166;2023-11-21T01:33:03;11.20;99.90
2913;DHT22;1466;48.778;9.166;2023-11-21T01:35:29;11.20;99.90
2913;DHT22;1466;48.778;9.166;2023-11-21T01:37:55;11.20;99.90
2913;DHT22;1466;48.778;9.166;2023-11-21T01:40:21;11.20;99.90
2913;DHT22;1466;48.778;9.166;2023-11-21T01:42:46;11.10;99.90
2913;DHT22;1466;48.778;9.166;2023-11-21T01:45:13;11.20;99.90
2913;DHT22;1466;48.778;9.166;2023-11-21T01:47:41;11.20;99.90
2913;DHT22;1466;48.778;9.166;2023-11-21T01:50:08;11.30;99.90
2913;DHT22;1466;48.778;9.166;2023-11-21T01:52:35;11.30;99.90
2913;DHT22;1466;48.778;9.166;2023-11-21T01:55:02;11.30;99.90
2913;DHT22;1466;48.778;9.166;2023-11-21T01:57:28;11.20;99.90
2913;DHT22;1466;48.778;9.166;2023-11-21T01:59:55;11.20;99.90
2913;DHT22;1466;48.778;9.166;2023-11-21T02:02:21;11.20;99.90
2913;DHT22;1466;48.778;9.166;2023-11-21T02:04:46;11.20;99.90
2913;DHT22;1466;48.778;9.166;2023-11-21T02:07:12;11.30;99.90
2913;DHT22;1466;48.778;9.166;2023-11-21T02:09:38;11.30;99.90
2913;DHT22;1466;48.778;9.166;2023-11-21T02:12:04;11.40;99.90
2913;DHT22;1466;48.778;9.166;2023-11-21T02:14:30;11.40;99.90
2913;DHT22;1466;48.778;9.166;2023-11-21T02:16:56;11.40;99.90
2913;DHT22;1466;48.778;9.166;2023-11-21T02:19:23;11.40;99.90
2913;DHT22;1466;48.778;9.166;2023-11-21T02:21:51;11.40;99.90
2913;DHT22;1466;48.778;9.166;2023-11-21T02:24:23;11.30;99.90
2913;DHT22;1466;48.778;9.166;2023-11-21T02:26:50;11.30;99.90
2913;DHT22;1466;48.778;9.166;2023-11-21T02:29:21;11.30;99.90
2913;DHT22;1466;48.778;9.166;2023-11-21T02:31:48;11.30;99.90
2913;DHT22;1466;48.778;9.166;2023-11-21T02:34:15;11.40;99.90
2913;DHT22;1466;48.778;9.166;2023-11-21T02:36:41;11.40;99.90
2913;DHT22;1466;48.778;9.166;2023-11-21T02:39:08;11.30;99.90
2913;DHT22;1466;48.778;9.166;2023-11-21T02:41:34;11.30;99.90
2913;DHT22;1466;48.778;9.166;2023-11-21T02:44:00;11.40;99.90
2913;DHT22;1466;48.778;9.166;2023-11-21T02:46:26;11.30;99.90
2913;DHT22;1466;48.778;9.166;2023-11-21T02:48:52;11.30;99.90
2913;DHT22;1466;48.778;9.166;2023-11-21T02:51:19;11.30;99.90
2913;DHT22;1466;48.778;9.166;2023-11-21T02:53:45;11.30;99.90
2913;DHT22;1466;48.778;9.166;2023-11-21T02:56:12;11.30;99.90
2913;DHT22;1466;48.778;9.166;2023-11-21T02:58:41;11.30;99.90
2913;DHT22;1466;48.778;9.166;2023-11-21T03:01:07;11.20;99.90
2913;DHT22;1466;48.778;9.166;2023-11-21T03:03:32;11.20;99.90
2913;DHT22;1466;48.778;9.166;2023-11-21T03:05:58;11.20;99.90
2913;DHT22;1466;48.778;9.166;2023-11-21T03:08:23;11.10;99.90
2913;DHT22;1466;48.778;9.166;2023-11-21T03:10:49;11.10;99.90
2913;DHT22;1466;48.778;9.166;2023-11-21T03:13:15;11.10;99.90
2913;DHT22;1466;48.778;9.166;2023-11-21T03:15:40;11.20;99.90
2913;DHT22;1466;48.778;9.166;2023-11-21T03:18:06;11.20;99.90
2913;DHT22;1466;48.778;9.166;2023-11-21T03:20:31;11.10;99.90
2913;DHT22;1466;48.778;9.166;2023-11-21T03:22:57;11.10;99.90
2913;DHT22;1466;48.778;9.166;2023-11-21T03:25:22;11.10;99.90
2913;DHT22;1466;48.778;9.166;2023-11-21T03:27:49;11.10;99.90
2913;DHT22;1466;48.778;9.166;2023-11-21T03:30:15;11.10;99.90
2913;DHT22;1466;48.778;9.166;2023-11-21T03:32:42;11.20;99.90
2913;DHT22;1466;48.778;9.166;2023-11-21T03:35:07;11.20;99.90
2913;DHT22;1466;48.778;9.166;2023-11-21T03:37:33;11.20;99.90
2913;DHT22;1466;48.778;9.166;2023-11-21T03:39:58;11.20;99.90
2913;DHT22;1466;48.778;9.166;2023-11-21T03:42:24;11.10;99.90
2913;DHT22;1466;48.778;9.166;2023-11-21T03:44:52;11.20;99.90
2913;DHT22;1466;48.778;9.166;2023-11-21T03:47:17;11.20;99.90
2913;DHT22;1466;48.778;9.166;2023-11-21T03:49:44;11.10;99.90
2913;DHT22;1466;48.778;9.166;2023-11-21T03:52:10;11.10;99.90
2913;DHT22;1466;48.778;9.166;2023-11-21T03:54:37;11.10;99.90
2913;DHT22;1466;48.778;9.166;2023-11-21T03:57:03;11.10;99.90
2913;DHT22;1466;48.778;9.166;2023-11-21T03:59:28;11.00;99.90
2913;DHT22;1466;48.778;9.166;2023-11-21T04:01:56;11.00;99.90
2913;DHT22;1466;48.778;9.166;2023-11-21T04:04:22;11.00;99.90
2913;DHT22;1466;48.778;9.166;2023-11-21T04:06:48;11.00;99.90
2913;DHT22;1466;48.778;9.166;2023-11-21T04:09:13;11.10;99.90
2913;DHT22;1466;48.778;9.166;2023-11-21T04:11:39;11.10;99.90
2913;DHT22;1466;48.778;9.166;2023-11-21T04:14:04;11.00;99.90
2913;DHT22;1466;48.778;9.166;2023-11-21T04:16:30;10.90;99.90
2913;DHT22;1466;48.778;9.166;2023-11-21T04:18:55;10.90;99.90
2913;DHT22;1466;48.778;9.166;2023-11-21T04:21:22;10.90;99.90
2913;DHT22;1466;48.778;9.166;2023-11-21T04:23:49;10.90;99.90
2913;DHT22;1466;48.778;9.166;2023-11-21T04:26:14;10.90;99.90
2913;DHT22;1466;48.778;9.166;2023-11-21T04:28:40;10.90;99.90
2913;DHT22;1466;48.778;9.166;2023-11-21T04:31:06;10.90;99.90
2913;DHT22;1466;48.778;9.166;2023-11-21T04:33:32;10.90;99.90
2913;DHT22;1466;48.778;9.166;2023-11-21T04:35:58;10.90;99.90
2913;DHT22;1466;48.778;9.166;2023-11-21T04:38:23;10.90;99.90
2913;DHT22;1466;48.778;9.166;2023-11-21T04:40:49;10.90;99.90
2913;DHT22;1466;48.778;9.166;2023-11-21T04:43:14;10.90;99.90
2913;DHT22;1466;48.778;9.166;2023-11-21T04:45:40;10.90;99.90
2913;DHT22;1466;48.778;9.166;2023-11-21T04:48:07;11.00;99.90
2913;DHT22;1466;48.778;9.166;2023-11-21T04:50:34;11.00;99.90
2913;DHT22;1466;48.778;9.166;2023-11-21T04:52:59;11.00;99.90
2913;DHT22;1466;48.778;9.166;2023-11-21T04:55:25;10.90;99.90
2913;DHT22;1466;48.778;9.166;2023-11-21T04:57:53;10.90;99.90
2913;DHT22;1466;48.778;9.166;2023-11-21T05:00:19;10.80;99.90
2913;DHT22;1466;48.778;9.166;2023-11-21T05:02:45;10.70;99.90
2913;DHT22;1466;48.778;9.166;2023-11-21T05:05:10;10.70;99.90
2913;DHT22;1466;48.778;9.166;2023-11-21T05:07:36;10.70;99.90
2913;DHT22;1466;48.778;9.166;2023-11-21T05:10:04;10.60;99.90
2913;DHT22;1466;48.778;9.166;2023-11-21T05:12:33;10.60;99.90
2913;DHT22;1466;48.778;9.166;2023-11-21T05:15:04;10.60;99.90
2913;DHT22;1466;48.778;9.166;2023-11-21T05:17:33;10.70;99.90
2913;DHT22;1466;48.778;9.166;2023-11-21T05:19:59;10.70;99.90
2913;DHT22;1466;48.778;9.166;2023-11-21T05:22:29;10.70;99.90
2913;DHT22;1466;48.778;9.166;2023-11-21T05:24:55;10.70;99.90
2913;DHT22;1466;48.778;9.166;2023-11-21T05:27:20;10.60;99.90
2913;DHT22;1466;48.778;9.166;2023-11-21T05:29:46;10.60;99.90
2913;DHT22;1466;48.778;9.166;2023-11-21T05:32:11;10.70;99.90
2913;DHT22;1466;48.778;9.166;2023-11-21T05:34:37;10.70;99.90
2913;DHT22;1466;48.778;9.166;2023-11-21T05:37:02;10.70;99.90
2913;DHT22;1466;48.778;9.166;2023-11-21T05:39:30;10.80;99.90
2913;DHT22;1466;48.778;9.166;2023-11-21T05:41:57;10.80;99.90
2913;DHT22;1466;48.778;9.166;2023-11-21T05:44:23;10.80;99.90
2913;DHT22;1466;48.778;9.166;2023-11-21T05:46:49;10.90;99.90
2913;DHT22;1466;48.778;9.166;2023-11-21T05:49:15;10.90;99.90
2913;DHT22;1466;48.778;9.166;2023-11-21T05:51:41;10.90;99.90
2913;DHT22;1466;48.778;9.166;2023-11-21T05:54:07;10.90;99.90
2913;DHT22;1466;48.778;9.166;2023-11-21T05:56:33;11.00;99.90
2913;DHT22;1466;48.778;9.166;2023-11-21T05:58:59;11.00;99.90
2913;DHT22;1466;48.778;9.166;2023-11-21T06:01:26;11.00;99.90
2913;DHT22;1466;48.778;9.166;2023-11-21T06:03:53;11.00;99.90
2913;DHT22;1466;48.778;9.166;2023-11-21T06:06:21;11.00;99.90
2913;DHT22;1466;48.778;9.166;2023-11-21T06:08:48;10.90;99.90
2913;DHT22;1466;48.778;9.166;2023-11-21T06:11:14;11.00;99.90
2913;DHT22;1466;48.778;9.166;2023-11-21T06:13:39;11.00;99.90
2913;DHT22;1466;48.778;9.166;2023-11-21T06:16:05;11.00;99.90
2913;DHT22;1466;48.778;9.166;2023-11-21T06:18:31;11.00;99.90
2913;DHT22;1466;48.778;9.166;2023-11-21T06:20:57;11.00;99.90
2913;DHT22;1466;48.778;9.166;2023-11-21T06:23:23;10.90;99.90
2913;DHT22;1466;48.778;9.166;2023-11-21T06:25:49;10.90;99.90
2913;DHT22;1466;48.778;9.166;2023-11-21T06:28:14;10.90;99.90
2913;DHT22;1466;48.778;9.166;2023-11-21T06:30:43;11.00;99.90
2913;DHT22;1466;48.778;9.166;2023-11-21T06:33:09;11.00;99.90
2913;DHT22;1466;48.778;9.166;2023-11-21T06:35:35;11.00;99.90
2913;DHT22;1466;48.778;9.166;2023-11-21T06:38:01;11.10;99.90
2913;DHT22;1466;48.778;9.166;2023-11-21T06:40:28;11.10;99.90
2913;DHT22;1466;48.778;9.166;2023-11-21T06:42:53;11.10;99.90
2913;DHT22;1466;48.778;9.166;2023-11-21T06:45:19;11.10;99.90
2913;DHT22;1466;48.778;9.166;2023-11-21T06:47:45;11.10;99.90
2913;DHT22;1466;48.778;9.166;2023-11-21T06:50:11;11.10;99.90
2913;DHT22;1466;48.778;9.166;2023-11-21T06:52:37;11.10;99.90
2913;DHT22;1466;48.778;9.166;2023-11-21T06:55:03;11.10;99.90
2913;DHT22;1466;48.778;9.166;2023-11-21T06:57:28;11.10;99.90
2913;DHT22;1466;48.778;9.166;2023-11-21T06:59:54;11.00;99.90
2913;DHT22;1466;48.778;9.166;2023-11-21T07:02:20;11.10;99.90
2913;DHT22;1466;48.778;9.166;2023-11-21T07:04:46;11.00;99.90
2913;DHT22;1466;48.778;9.166;2023-11-21T07:07:12;11.10;99.90
2913;DHT22;1466;48.778;9.166;2023-11-21T07:09:38;11.00;99.90
2913;DHT22;1466;48.778;9.166;2023-11-21T07:12:04;11.00;99.90
2913;DHT22;1466;48.778;9.166;2023-11-21T07:14:31;11.00;99.90
2913;DHT22;1466;48.778;9.166;2023-11-21T07:16:57;11.10;99.90
2913;DHT22;1466;48.778;9.166;2023-11-21T07:19:23;11.10;99.90
2913;DHT22;1466;48.778;9.166;2023-11-21T07:21:49;11.10;99.90
2913;DHT22;1466;48.778;9.166;2023-11-21T07:24:17;11.10;99.90
2913;DHT22;1466;48.778;9.166;2023-11-21T07:26:43;11.10;99.90
2913;DHT22;1466;48.778;9.166;2023-11-21T07:29:08;11.20;99.90
2913;DHT22;1466;48.778;9.166;2023-11-21T07:31:34;11.20;99.90
2913;DHT22;1466;48.778;9.166;2023-11-21T07:34:00;11.20;99.90
2913;DHT22;1466;48.778;9.166;2023-11-21T07:36:26;11.20;99.90
2913;DHT22;1466;48.778;9.166;2023-11-21T07:38:52;11.30;99.90
2913;DHT22;1466;48.778;9.166;2023-11-21T07:41:18;11.30;99.90
2913;DHT22;1466;48.778;9.166;2023-11-21T07:43:45;11.40;99.90
2913;DHT22;1466;48.778;9.166;2023-11-21T07:46:11;11.40;99.90
2913;DHT22;1466;48.778;9.166;2023-11-21T07:48:41;11.40;99.90
2913;DHT22;1466;48.778;9.166;2023-11-21T07:51:08;11.40;99.90
2913;DHT22;1466;48.778;9.166;2023-11-21T07:53:34;11.40;99.90
2913;DHT22;1466;48.778;9.166;2023-11-21T07:56:04;11.40;99.90
2913;DHT22;1466;48.778;9.166;2023-11-21T07:58:30;11.40;99.90
2913;DHT22;1466;48.778;9.166;2023-11-21T08:00:56;11.40;99.90
2913;DHT22;1466;48.778;9.166;2023-11-21T08:03:22;11.40;99.90
2913;DHT22;1466;48.778;9.166;2023-11-21T08:05:47;11.50;99.90
2913;DHT22;1466;48.778;9.166;2023-11-21T08:08:13;11.50;99.90
2913;DHT22;1466;48.778;9.166;2023-11-21T08:10:38;11.40;99.90
2913;DHT22;1466;48.778;9.166;2023-11-21T08:13:05;11.50;99.90
2913;DHT22;1466;48.778;9.166;2023-11-21T08:15:31;11.50;99.90
2913;DHT22;1466;48.778;9.166;2023-11-21T08:17:58;11.50;99.90
2913;DHT22;1466;48.778;9.166;2023-11-21T08:20:24;11.50;99.90
2913;DHT22;1466;48.778;9.166;2023-11-21T08:22:50;11.40;99.90
2913;DHT22;1466;48.778;9.166;2023-11-21T08:25:18;11.40;99.90
2913;DHT22;1466;48.778;9.166;2023-11-21T08:27:45;11.50;99.90
2913;DHT22;1466;48.778;9.166;2023-11-21T08:30:11;11.50;99.90
2913;DHT22;1466;48.778;9.166;2023-11-21T08:32:39;11.50;99.90
2913;DHT22;1466;48.778;9.166;2023-11-21T08:35:07;11.50;99.90
2913;DHT22;1466;48.778;9.166;2023-11-21T08:37:32;11.50;99.90
2913;DHT22;1466;48.778;9.166;2023-11-21T08:40:01;11.50;99.90
2913;DHT22;1466;48.778;9.166;2023-11-21T08:42:27;11.60;99.90
2913;DHT22;1466;48.778;9.166;2023-11-21T08:44:58;11.60;99.90
2913;DHT22;1466;48.778;9.166;2023-11-21T08:47:24;11.70;99.90
2913;DHT22;1466;48.778;9.166;2023-11-21T08:49:50;11.80;99.90
2913;DHT22;1466;48.778;9.166;2023-11-21T08:52:21;11.90;99.90
2913;DHT22;1466;48.778;9.166;2023-11-21T08:54:50;11.90;99.90
2913;DHT22;1466;48.778;9.166;2023-11-21T08:57:22;11.90;99.90
2913;DHT22;1466;48.778;9.166;2023-11-21T08:59:48;12.00;99.90
2913;DHT22;1466;48.778;9.166;2023-11-21T09:02:13;12.00;99.90
2913;DHT22;1466;48.778;9.166;2023-11-21T09:04:39;12.10;99.90
2913;DHT22;1466;48.778;9.166;2023-11-21T09:07:04;12.10;99.90
2913;DHT22;1466;48.778;9.166;2023-11-21T09:09:30;12.10;99.90
2913;DHT22;1466;48.778;9.166;2023-11-21T09:11:56;12.20;99.90
2913;DHT22;1466;48.778;9.166;2023-11-21T09:14:21;12.30;99.90
2913;DHT22;1466;48.778;9.166;2023-11-21T09:16:47;12.30;99.90
2913;DHT22;1466;48.778;9.166;2023-11-21T09:19:13;12.30;99.90
2913;DHT22;1466;48.778;9.166;2023-11-21T09:21:39;12.30;99.90
2913;DHT22;1466;48.778;9.166;2023-11-21T09:24:05;12.30;99.90
2913;DHT22;1466;48.778;9.166;2023-11-21T09:26:31;12.30;99.90
2913;DHT22;1466;48.778;9.166;2023-11-21T09:28:56;12.30;99.90
2913;DHT22;1466;48.778;9.166;2023-11-21T09:31:22;12.30;99.90
2913;DHT22;1466;48.778;9.166;2023-11-21T09:33:49;12.30;99.90
2913;DHT22;1466;48.778;9.166;2023-11-21T09:36:14;12.40;99.90
2913;DHT22;1466;48.778;9.166;2023-11-21T09:38:41;12.40;99.90
2913;DHT22;1466;48.778;9.166;2023-11-21T09:41:15;12.30;99.90
2913;DHT22;1466;48.778;9.166;2023-11-21T09:43:43;12.10;99.90
2913;DHT22;1466;48.778;9.166;2023-11-21T09:46:11;12.00;99.90
2913;DHT22;1466;48.778;9.166;2023-11-21T09:48:42;12.00;99.90
2913;DHT22;1466;48.778;9.166;2023-11-21T09:51:09;11.90;99.90
2913;DHT22;1466;48.778;9.166;2023-11-21T09:53:36;11.90;99.90
2913;DHT22;1466;48.778;9.166;2023-11-21T09:56:04;12.00;99.90
2913;DHT22;1466;48.778;9.166;2023-11-21T09:58:30;12.00;99.90
2913;DHT22;1466;48.778;9.166;2023-11-21T10:00:59;12.10;99.90
2913;DHT22;1466;48.778;9.166;2023-11-21T10:03:28;12.00;99.90
2913;DHT22;1466;48.778;9.166;2023-11-21T10:05:56;12.00;99.90
2913;DHT22;1466;48.778;9.166;2023-11-21T10:08:27;12.10;99.90
2913;DHT22;1466;48.778;9.166;2023-11-21T10:10:53;12.00;99.90
2913;DHT22;1466;48.778;9.166;2023-11-21T10:13:19;12.00;99.90
2913;DHT22;1466;48.778;9.166;2023-11-21T10:15:50;12.00;99.90
2913;DHT22;1466;48.778;9.166;2023-11-21T10:18:16;12.00;99.90
2913;DHT22;1466;48.778;9.166;2023-11-21T10:20:41;11.90;99.90
2913;DHT22;1466;48.778;9.166;2023-11-21T10:23:11;11.90;99.90
2913;DHT22;1466;48.778;9.166;2023-11-21T10:25:38;11.70;99.90
2913;DHT22;1466;48.778;9.166;2023-11-21T10:28:04;11.60;99.90
2913;DHT22;1466;48.778;9.166;2023-11-21T10:30:34;11.50;99.90
2913;DHT22;1466;48.778;9.166;2023-11-21T10:33:05;11.40;99.90
2913;DHT22;1466;48.778;9.166;2023-11-21T10:35:44;11.40;99.90
2913;DHT22;1466;48.778;9.166;2023-11-21T10:38:19;11.50;99.90
2913;DHT22;1466;48.778;9.166;2023-11-21T10:40:48;11.50;99.90
2913;DHT22;1466;48.778;9.166;2023-11-21T10:43:15;11.60;99.90
2913;DHT22;1466;48.778;9.166;2023-11-21T10:45:42;11.60;99.90
2913;DHT22;1466;48.778;9.166;2023-11-21T10:48:09;11.60;99.90
2913;DHT22;1466;48.778;9.166;2023-11-21T10:50:40;11.50;99.90
2913;DHT22;1466;48.778;9.166;2023-11-21T10:53:06;11.60;99.90
2913;DHT22;1466;48.778;9.166;2023-11-21T10:55:33;11.70;99.90
2913;DHT22;1466;48.778;9.166;2023-11-21T10:58:00;11.70;99.90
2913;DHT22;1466;48.778;9.166;2023-11-21T11:00:28;11.80;99.90
2913;DHT22;1466;48.778;9.166;2023-11-21T11:02:54;12.00;99.90
2913;DHT22;1466;48.778;9.166;2023-11-21T11:05:22;12.10;99.90
2913;DHT22;1466;48.778;9.166;2023-11-21T11:07:52;12.20;99.90
2913;DHT22;1466;48.778;9.166;2023-11-21T11:10:28;12.20;99.90
2913;DHT22;1466;48.778;9.166;2023-11-21T11:12:55;12.30;99.90
2913;DHT22;1466;48.778;9.166;2023-11-21T11:15:23;12.30;99.90
2913;DHT22;1466;48.778;9.166;2023-11-21T11:17:49;12.40;99.90
2913;DHT22;1466;48.778;9.166;2023-11-21T11:20:16;12.40;99.90
2913;DHT22;1466;48.778;9.166;2023-11-21T11:28:44;12.30;99.90
2913;DHT22;1466;48.778;9.166;2023-11-21T11:31:58;12.30;99.90
2913;DHT22;1466;48.778;9.166;2023-11-21T11:34:36;12.30;99.90
2913;DHT22;1466;48.778;9.166;2023-11-21T11:37:06;12.30;99.90
2913;DHT22;1466;48.778;9.166;2023-11-21T11:39:43;12.30;99.90
2913;DHT22;1466;48.778;9.166;2023-11-21T11:42:13;12.20;99.90
2913;DHT22;1466;48.778;9.166;2023-11-21T11:55:00;12.30;99.90
2913;DHT22;1466;48.778;9.166;2023-11-21T11:57:26;12.30;99.90
2913;DHT22;1466;48.778;9.166;2023-11-21T12:02:36;12.40;99.90
2913;DHT22;1466;48.778;9.166;2023-11-21T12:05:10;12.50;99.90
2913;DHT22;1466;48.778;9.166;2023-11-21T12:07:46;12.50;99.90
2913;DHT22;1466;48.778;9.166;2023-11-21T12:10:16;12.60;99.90
2913;DHT22;1466;48.778;9.166;2023-11-21T12:12:48;12.60;99.90
2913;DHT22;1466;48.778;9.166;2023-11-21T12:15:15;12.50;99.90
2913;DHT22;1466;48.778;9.166;2023-11-21T12:17:44;12.40;99.90
2913;DHT22;1466;48.778;9.166;2023-11-21T12:20:11;12.40;99.90
2913;DHT22;1466;48.778;9.166;2023-11-21T12:22:51;12.50;99.90
2913;DHT22;1466;48.778;9.166;2023-11-21T12:25:17;12.50;99.90
2913;DHT22;1466;48.778;9.166;2023-11-21T12:27:54;12.50;99.90
2913;DHT22;1466;48.778;9.166;2023-11-21T12:30:22;12.40;99.90
2913;DHT22;1466;48.778;9.166;2023-11-21T12:32:50;12.40;99.90
2913;DHT22;1466;48.778;9.166;2023-11-21T12:35:20;12.50;99.90
2913;DHT22;1466;48.778;9.166;2023-11-21T12:37:47;12.50;99.90
2913;DHT22;1466;48.778;9.166;2023-11-21T12:40:14;12.30;99.90
2913;DHT22;1466;48.778;9.166;2023-11-21T12:42:45;12.40;99.90
2913;DHT22;1466;48.778;9.166;2023-11-21T12:45:21;12.20;99.90
2913;DHT22;1466;48.778;9.166;2023-11-21T12:47:51;12.10;99.90
2913;DHT22;1466;48.778;9.166;2023-11-21T12:50:21;12.10;99.90
2913;DHT22;1466;48.778;9.166;2023-11-21T12:52:52;12.10;99.90
2913;DHT22;1466;48.778;9.166;2023-11-21T12:55:20;12.00;99.90
2913;DHT22;1466;48.778;9.166;2023-11-21T12:57:54;11.90;99.90
2913;DHT22;1466;48.778;9.166;2023-11-21T13:00:26;11.90;99.90
2913;DHT22;1466;48.778;9.166;2023-11-21T13:02:57;12.00;99.90
2913;DHT22;1466;48.778;9.166;2023-11-21T13:05:34;12.10;99.90
2913;DHT22;1466;48.778;9.166;2023-11-21T13:08:03;12.20;99.90
2913;DHT22;1466;48.778;9.166;2023-11-21T13:10:33;12.20;99.90
2913;DHT22;1466;48.778;9.166;2023-11-21T13:13:02;12.30;99.90
2913;DHT22;1466;48.778;9.166;2023-11-21T13:15:31;12.40;99.90
2913;DHT22;1466;48.778;9.166;2023-11-21T13:17:58;12.50;99.90
2913;DHT22;1466;48.778;9.166;2023-11-21T13:20:25;12.30;99.90
2913;DHT22;1466;48.778;9.166;2023-11-21T13:22:56;12.20;99.90
2913;DHT22;1466;48.778;9.166;2023-11-21T13:25:29;12.00;99.90
2913;DHT22;1466;48.778;9.166;2023-11-21T13:27:57;11.80;99.90
2913;DHT22;1466;48.778;9.166;2023-11-21T13:30:24;11.70;99.90
2913;DHT22;1466;48.778;9.166;2023-11-21T13:32:59;11.50;99.90
2913;DHT22;1466;48.778;9.166;2023-11-21T13:35:27;11.30;99.90
2913;DHT22;1466;48.778;9.166;2023-11-21T13:38:06;11.00;99.90
2913;DHT22;1466;48.778;9.166;2023-11-21T13:40:33;10.80;99.90
2913;DHT22;1466;48.778;9.166;2023-11-21T13:43:03;10.80;99.90
2913;DHT22;1466;48.778;9.166;2023-11-21T13:45:30;10.80;99.90
2913;DHT22;1466;48.778;9.166;2023-11-21T13:47:56;10.70;99.90
2913;DHT22;1466;48.778;9.166;2023-11-21T13:50:28;10.80;99.90
2913;DHT22;1466;48.778;9.166;2023-11-21T13:53:01;10.60;99.90
2913;DHT22;1466;48.778;9.166;2023-11-21T13:55:34;10.60;99.90
2913;DHT22;1466;48.778;9.166;2023-11-21T13:58:01;10.60;99.90
2913;DHT22;1466;48.778;9.166;2023-11-21T14:00:29;10.70;99.90
2913;DHT22;1466;48.778;9.166;2023-11-21T14:03:26;10.80;99.90
2913;DHT22;1466;48.778;9.166;2023-11-21T14:06:05;10.80;99.90
2913;DHT22;1466;48.778;9.166;2023-11-21T14:08:42;10.90;99.90
2913;DHT22;1466;48.778;9.166;2023-11-21T14:11:08;10.90;99.90
2913;DHT22;1466;48.778;9.166;2023-11-21T14:13:36;10.90;99.90
2913;DHT22;1466;48.778;9.166;2023-11-21T14:16:03;10.90;99.90
2913;DHT22;1466;48.778;9.166;2023-11-21T14:18:32;10.90;99.90
2913;DHT22;1466;48.778;9.166;2023-11-21T14:21:04;10.80;99.90
2913;DHT22;1466;48.778;9.166;2023-11-21T14:23:31;10.80;99.90
2913;DHT22;1466;48.778;9.166;2023-11-21T14:25:58;10.90;99.90
2913;DHT22;1466;48.778;9.166;2023-11-21T14:28:26;10.70;99.90
2913;DHT22;1466;48.778;9.166;2023-11-21T14:30:52;10.80;99.90
2913;DHT22;1466;48.778;9.166;2023-11-21T14:33:17;10.80;99.90
2913;DHT22;1466;48.778;9.166;2023-11-21T14:35:43;10.60;99.90
2913;DHT22;1466;48.778;9.166;2023-11-21T14:38:10;10.70;99.90
2913;DHT22;1466;48.778;9.166;2023-11-21T14:40:36;10.70;99.90
2913;DHT22;1466;48.778;9.166;2023-11-21T14:43:04;10.70;99.90
2913;DHT22;1466;48.778;9.166;2023-11-21T14:45:34;10.60;99.90
2913;DHT22;1466;48.778;9.166;2023-11-21T14:48:00;10.70;99.90
2913;DHT22;1466;48.778;9.166;2023-11-21T14:50:34;10.80;99.90
2913;DHT22;1466;48.778;9.166;2023-11-21T14:53:24;10.90;99.90
2913;DHT22;1466;48.778;9.166;2023-11-21T14:56:09;10.80;99.90
2913;DHT22;1466;48.778;9.166;2023-11-21T14:58:35;10.90;99.90
2913;DHT22;1466;48.778;9.166;2023-11-21T15:01:03;10.80;99.90
2913;DHT22;1466;48.778;9.166;2023-11-21T15:03:29;10.80;99.90
2913;DHT22;1466;48.778;9.166;2023-11-21T15:06:02;10.80;99.90
2913;DHT22;1466;48.778;9.166;2023-11-21T15:08:52;10.80;99.90
2913;DHT22;1466;48.778;9.166;2023-11-21T15:11:27;10.90;99.90
2913;DHT22;1466;48.778;9.166;2023-11-21T15:13:57;11.00;99.90
2913;DHT22;1466;48.778;9.166;2023-11-21T15:16:22;11.00;99.90
2913;DHT22;1466;48.778;9.166;2023-11-21T15:18:48;11.00;99.90
2913;DHT22;1466;48.778;9.166;2023-11-21T15:21:14;11.00;99.90
2913;DHT22;1466;48.778;9.166;2023-11-21T15:23:40;10.90;99.90
2913;DHT22;1466;48.778;9.166;2023-11-21T15:26:07;10.80;99.90
2913;DHT22;1466;48.778;9.166;2023-11-21T15:28:34;10.90;99.90
2913;DHT22;1466;48.778;9.166;2023-11-21T15:31:00;10.90;99.90
2913;DHT22;1466;48.778;9.166;2023-11-21T15:33:28;11.10;99.90
2913;DHT22;1466;48.778;9.166;2023-11-21T15:35:53;11.10;99.90
2913;DHT22;1466;48.778;9.166;2023-11-21T15:38:20;11.00;99.90
2913;DHT22;1466;48.778;9.166;2023-11-21T15:40:46;10.90;99.90
2913;DHT22;1466;48.778;9.166;2023-11-21T15:43:12;10.90;99.90
2913;DHT22;1466;48.778;9.166;2023-11-21T15:45:39;10.80;99.90
2913;DHT22;1466;48.778;9.166;2023-11-21T15:48:05;10.80;99.90
2913;DHT22;1466;48.778;9.166;2023-11-21T15:50:31;10.70;99.90
2913;DHT22;1466;48.778;9.166;2023-11-21T15:52:57;10.70;99.90
2913;DHT22;1466;48.778;9.166;2023-11-21T15:55:26;10.80;99.90
2913;DHT22;1466;48.778;9.166;2023-11-21T15:57:52;10.70;99.90
2913;DHT22;1466;48.778;9.166;2023-11-21T16:00:18;10.70;99.90
2913;DHT22;1466;48.778;9.166;2023-11-21T16:02:46;10.80;99.90
2913;DHT22;1466;48.778;9.166;2023-11-21T16:05:12;10.80;99.90
2913;DHT22;1466;48.778;9.166;2023-11-21T16:07:42;10.80;99.90
2913;DHT22;1466;48.778;9.166;2023-11-21T16:10:09;10.80;99.90
2913;DHT22;1466;48.778;9.166;2023-11-21T16:12:40;10.80;99.90
2913;DHT22;1466;48.778;9.166;2023-11-21T16:15:07;10.80;99.90
2913;DHT22;1466;48.778;9.166;2023-11-21T16:17:37;10.80;99.90
2913;DHT22;1466;48.778;9.166;2023-11-21T16:20:04;10.80;99.90
2913;DHT22;1466;48.778;9.166;2023-11-21T16:22:37;10.90;99.90